createdAt,value
2022-09-03T06:34:44.718Z,12.53
2022-09-03T06:37:21.932Z,12.65
2022-09-03T06:39:58.893Z,12.77
2022-09-03T06:42:36.101Z,12.88
2022-09-03T06:45:14.735Z,12.97
2022-09-03T06:47:51.856Z,13.13
2022-09-03T06:50:34.529Z,13.24
2022-09-03T06:53:12.728Z,13.35
2022-09-03T06:55:57.511Z,13.52
2022-09-03T06:58:36.422Z,13.63
2022-09-03T07:01:16.664Z,13.77
2022-09-03T07:04:01.312Z,13.91
2022-09-03T07:06:43.121Z,14.03
2022-09-03T07:09:20.742Z,14.12
2022-09-03T07:11:57.589Z,14.21
2022-09-03T07:14:34.750Z,14.29
2022-09-03T07:17:11.589Z,14.38
2022-09-03T07:19:48.737Z,14.48
2022-09-03T07:22:31.281Z,14.58
2022-09-03T07:25:09.209Z,14.68
2022-09-03T07:27:47.664Z,14.77
2022-09-03T07:30:26.819Z,14.90
2022-09-03T07:33:04.926Z,15.00
2022-09-03T07:35:42.733Z,15.08
2022-09-03T07:38:24.630Z,15.17
2022-09-03T07:41:03.123Z,15.24
2022-09-03T07:43:43.471Z,15.33
2022-09-03T07:46:23.670Z,15.41
2022-09-03T07:49:03.560Z,15.49
2022-09-03T07:51:42.693Z,15.52
2022-09-03T07:54:22.634Z,15.58
2022-09-03T07:56:59.912Z,15.64
2022-09-03T07:59:36.756Z,15.68
2022-09-03T08:02:14.443Z,15.73
2022-09-03T08:04:52.352Z,15.76
2022-09-03T08:07:29.532Z,15.82
2022-09-03T08:10:10.114Z,15.88
2022-09-03T08:12:47.412Z,15.88
2022-09-03T08:15:24.283Z,15.93
2022-09-03T08:18:03.708Z,16.01
2022-09-03T08:20:43.095Z,16.11
2022-09-03T08:23:20.291Z,16.17
2022-09-03T08:26:05.615Z,16.19
2022-09-03T08:28:43.687Z,16.24
2022-09-03T08:31:23.074Z,16.27
2022-09-03T08:34:07.189Z,16.32
2022-09-03T08:36:44.888Z,16.39
2022-09-03T08:39:22.220Z,16.44
2022-09-03T08:42:22.104Z,16.48
2022-09-03T08:45:03.180Z,16.52
2022-09-03T08:47:46.446Z,16.54
2022-09-03T08:50:29.367Z,16.57
2022-09-03T08:53:13.208Z,16.63
2022-09-03T08:55:56.906Z,16.67
2022-09-03T08:58:39.866Z,16.60
2022-09-03T09:01:27.880Z,16.67
2022-09-03T09:04:15.604Z,16.71
2022-09-03T09:06:59.373Z,16.80
2022-09-03T09:09:42.475Z,16.93
2022-09-03T09:12:41.343Z,17.24
2022-09-03T09:15:33.958Z,17.60
2022-09-03T09:18:19.657Z,18.06
2022-09-03T09:21:03.287Z,18.63
2022-09-03T09:23:44.648Z,19.33
2022-09-03T09:26:24.863Z,20.21
2022-09-03T09:29:09.458Z,21.11
2022-09-03T09:31:49.850Z,22.11
2022-09-03T09:34:28.093Z,23.05
2022-09-03T09:37:09.241Z,23.24
2022-09-03T09:39:59.999Z,23.86
2022-09-03T09:42:37.190Z,24.07
2022-09-03T09:45:15.111Z,23.63
2022-09-03T09:47:59.984Z,23.29
2022-09-03T09:50:37.103Z,23.22
2022-09-03T09:53:18.363Z,23.07
2022-09-03T09:55:58.466Z,22.74
2022-09-03T09:58:36.763Z,22.51
2022-09-03T10:01:18.597Z,22.18
2022-09-03T10:04:00.700Z,22.07
2022-09-03T10:06:51.074Z,21.97
2022-09-03T10:09:31.058Z,21.47
2022-09-03T10:12:20.034Z,21.66
2022-09-03T10:15:04.109Z,21.63
2022-09-03T10:17:56.043Z,21.61
2022-09-03T10:20:41.140Z,21.52
2022-09-03T10:23:21.742Z,21.30
2022-09-03T10:26:07.822Z,21.09
2022-09-03T10:28:46.169Z,20.91
2022-09-03T10:31:39.990Z,20.91
2022-09-03T10:34:24.420Z,20.86
2022-09-03T10:37:16.055Z,20.82
2022-09-03T10:40:31.359Z,20.87
2022-09-03T10:43:33.036Z,20.99
2022-09-03T10:46:23.854Z,20.96
2022-09-03T10:49:28.848Z,20.86
2022-09-03T10:52:19.473Z,20.93
2022-09-03T10:55:17.510Z,20.84
2022-09-03T10:58:04.508Z,20.94
2022-09-03T11:00:59.698Z,20.99
2022-09-03T11:03:47.043Z,21.19
2022-09-03T11:06:27.935Z,21.39
2022-09-03T11:09:19.696Z,21.41
2022-09-03T11:12:00.785Z,21.48
2022-09-03T11:14:43.655Z,21.54
2022-09-03T11:17:27.246Z,21.53
2022-09-03T11:20:14.536Z,21.52
2022-09-03T11:22:55.023Z,21.31
2022-09-03T11:25:37.630Z,21.37
2022-09-03T11:28:26.892Z,21.18
2022-09-03T11:31:25.624Z,21.18
2022-09-03T11:34:10.677Z,21.38
2022-09-03T11:36:48.220Z,21.69
2022-09-03T11:39:30.506Z,22.02
2022-09-03T11:42:16.203Z,22.28
2022-09-03T11:44:55.653Z,22.37
2022-09-03T11:47:44.213Z,22.32
2022-09-03T11:50:26.915Z,22.38
2022-09-03T11:53:14.442Z,22.37
2022-09-03T11:55:59.898Z,22.66
2022-09-03T11:58:43.880Z,22.74
2022-09-03T12:01:23.138Z,22.70
2022-09-03T12:04:08.066Z,22.98
2022-09-03T12:07:20.190Z,23.98
2022-09-03T12:10:29.534Z,24.72
2022-09-03T12:13:21.500Z,25.77
2022-09-03T12:16:25.954Z,25.67
2022-09-03T12:19:12.865Z,25.77
2022-09-03T12:21:53.152Z,26.13
2022-09-03T12:24:38.198Z,26.19
2022-09-03T12:27:24.566Z,26.17
2022-09-03T12:30:03.367Z,26.00
2022-09-03T12:32:43.898Z,25.82
2022-09-03T12:38:28.035Z,25.20
2022-09-03T12:41:24.203Z,25.26
2022-09-03T12:44:03.789Z,25.16
2022-09-03T12:46:40.609Z,25.22
2022-09-03T12:49:36.733Z,25.14
2022-09-03T12:52:21.936Z,25.37
2022-09-03T12:55:02.279Z,25.48
2022-09-03T12:57:43.052Z,25.52
2022-09-03T13:00:22.294Z,25.59
2022-09-03T13:03:04.435Z,25.35
2022-09-03T13:05:48.454Z,25.42
2022-09-03T13:08:33.568Z,25.46
2022-09-03T13:11:11.823Z,25.55
2022-09-03T13:13:59.202Z,25.67
2022-09-03T13:17:14.860Z,25.72
2022-09-03T13:20:07.313Z,25.93
2022-09-03T13:23:00.670Z,26.04
2022-09-03T13:25:40.052Z,26.22
2022-09-03T13:28:32.149Z,26.22
2022-09-03T13:31:23.705Z,26.26
2022-09-03T13:34:07.393Z,26.34
2022-09-03T13:36:49.624Z,26.53
2022-09-03T13:39:35.245Z,26.58
2022-09-03T13:42:19.387Z,26.49
2022-09-03T13:45:02.450Z,26.57
2022-09-03T13:48:06.521Z,26.36
2022-09-03T13:50:47.981Z,26.00
2022-09-03T13:53:41.711Z,26.18
2022-09-03T13:56:39.271Z,26.05
2022-09-03T13:59:25.412Z,26.12
2022-09-03T14:02:23.803Z,25.77
2022-09-03T14:05:10.594Z,25.61
2022-09-03T14:08:09.488Z,25.26
2022-09-03T14:11:01.604Z,24.85
2022-09-03T14:14:00.195Z,24.74
2022-09-03T14:16:45.106Z,24.48
2022-09-03T14:19:31.467Z,24.17
2022-09-03T14:22:14.961Z,23.75
2022-09-03T14:24:57.327Z,23.75
2022-09-03T14:27:37.027Z,23.28
2022-09-03T14:30:36.850Z,23.04
2022-09-03T14:33:24.273Z,22.97
2022-09-03T14:36:16.554Z,22.80
2022-09-03T14:39:14.867Z,22.69
2022-09-03T14:42:11.587Z,22.42
2022-09-03T14:45:10.668Z,22.27
2022-09-03T14:48:09.253Z,21.96
2022-09-03T14:50:56.907Z,21.86
2022-09-03T14:54:14.342Z,21.75
2022-09-03T14:57:03.138Z,21.77
2022-09-03T15:00:05.147Z,21.84
2022-09-03T15:03:18.136Z,21.87
2022-09-03T15:06:10.978Z,21.87
2022-09-03T15:09:07.014Z,21.95
2022-09-03T15:11:55.204Z,22.01
2022-09-03T15:14:42.263Z,21.94
2022-09-03T15:17:39.704Z,21.72
2022-09-03T15:20:31.234Z,21.63
2022-09-03T15:23:29.124Z,21.32
2022-09-03T15:26:28.104Z,21.29
2022-09-03T15:29:44.255Z,21.17
2022-09-03T15:32:35.864Z,21.04
2022-09-03T15:35:20.478Z,20.81
2022-09-03T15:38:04.154Z,20.75
2022-09-03T15:40:52.386Z,20.64
2022-09-03T15:43:32.965Z,20.55
2022-09-03T15:46:15.169Z,20.49
2022-09-03T15:49:03.804Z,20.32
2022-09-03T15:51:52.604Z,20.21
2022-09-03T15:54:43.770Z,20.13
2022-09-03T15:57:29.415Z,20.00
2022-09-03T16:00:10.808Z,19.87
2022-09-03T16:02:54.965Z,19.88
2022-09-03T16:05:45.995Z,19.75
2022-09-03T16:08:32.194Z,19.77
2022-09-03T16:11:17.016Z,19.74
2022-09-03T16:14:05.704Z,19.71
2022-09-03T16:17:02.695Z,19.59
2022-09-03T16:19:50.774Z,19.55
2022-09-03T16:22:33.034Z,19.46
2022-09-03T16:25:16.054Z,19.42
2022-09-03T16:28:10.217Z,19.38
2022-09-03T16:31:01.226Z,19.26
2022-09-03T16:33:45.785Z,19.24
2022-09-03T16:36:44.873Z,19.18
2022-09-03T16:39:39.127Z,19.05
2022-09-03T16:42:25.274Z,18.97
2022-09-03T16:45:15.077Z,18.94
2022-09-03T16:48:21.054Z,18.89
2022-09-03T16:51:11.937Z,18.85
2022-09-03T16:54:09.482Z,18.79
2022-09-03T16:56:58.775Z,18.70
2022-09-03T17:00:15.028Z,18.60
2022-09-03T17:03:14.102Z,18.49
2022-09-03T17:06:21.308Z,18.43
2022-09-03T17:09:06.865Z,18.30
2022-09-03T17:12:07.150Z,18.24
2022-09-03T17:15:23.040Z,18.15
2022-09-03T17:18:23.140Z,18.10
2022-09-03T17:21:31.329Z,18.06
2022-09-03T17:24:38.630Z,17.97
2022-09-03T17:27:46.779Z,17.90
2022-09-03T17:30:31.782Z,17.79
2022-09-03T17:33:40.667Z,17.71
2022-09-03T17:36:22.394Z,17.65
2022-09-03T17:39:37.844Z,17.61
2022-09-03T17:42:21.815Z,17.49
2022-09-03T17:45:15.745Z,17.39
2022-09-03T17:48:21.162Z,17.36
2022-09-03T17:51:07.927Z,17.32
2022-09-03T17:53:54.591Z,17.24
2022-09-03T17:56:45.062Z,17.19
2022-09-03T17:59:32.866Z,17.10
2022-09-03T18:02:21.242Z,17.04
2022-09-03T18:05:07.183Z,16.96
2022-09-03T18:07:53.097Z,16.94
2022-09-03T18:10:44.388Z,16.89
2022-09-03T18:13:28.507Z,16.83
2022-09-03T18:16:10.375Z,16.79
2022-09-03T18:18:53.483Z,16.74
2022-09-03T18:21:51.161Z,16.68
2022-09-03T18:24:51.096Z,16.63
2022-09-03T18:27:49.305Z,16.58
2022-09-03T18:30:40.052Z,16.53
2022-09-03T18:33:36.575Z,16.47
2022-09-03T18:36:27.444Z,16.43
2022-09-03T18:39:27.308Z,16.37
2022-09-03T18:42:31.514Z,16.33
2022-09-03T18:45:56.314Z,16.29
2022-09-03T18:48:51.019Z,16.27
2022-09-03T18:51:50.475Z,16.22
2022-09-03T18:55:06.853Z,16.13
2022-09-03T18:58:19.926Z,15.83
2022-09-03T19:01:19.999Z,15.66
2022-09-03T19:04:23.783Z,15.29
2022-09-03T19:07:23.223Z,15.12
2022-09-03T19:10:21.892Z,14.96
2022-09-03T19:13:34.655Z,14.76
2022-09-03T19:16:32.753Z,14.57
2022-09-03T19:19:50.582Z,14.43
2022-09-03T19:22:48.782Z,14.21
2022-09-03T19:25:39.451Z,14.08
2022-09-03T19:28:38.443Z,13.90
2022-09-03T19:31:46.082Z,13.70
2022-09-03T19:35:14.417Z,13.46
2022-09-03T19:38:14.582Z,13.31
2022-09-03T19:41:15.801Z,13.16
2022-09-03T19:44:20.557Z,13.00
2022-09-03T19:47:13.614Z,12.82
2022-09-03T19:50:18.674Z,12.69
2022-09-03T19:53:13.783Z,12.61
2022-09-03T19:56:08.614Z,12.54
2022-09-03T19:59:03.143Z,12.48
